Time;durP1;ratioP1;P1;durP2;ratioP2;P2;SDS_P1;SDS_P2;PMS_P1;PMS_P2;Temp;Humidity;BMP_temperature;BMP_pressure;BME280_temperature;BME280_humidity;BME280_pressure;Samples;Min_cycle;Max_cycle;Signal;HPM_P1;HPM_P2
2023/01/27 00:02:17;;;;;;;10.03;7.27;;;;;;;;;;6294337;28;20453;-77
2023/01/27 00:05:17;;;;;;;7.03;6.53;;;;;;;;;;6298559;28;20020;-77
2023/01/27 00:08:18;;;;;;;6.00;5.13;;;;;;;;;;6277575;28;20040;-77
2023/01/27 00:14:37;;;;;;;3.58;3.42;;;;;;;;;;6295049;28;20484;-76
2023/01/27 00:17:37;;;;;;;3.27;3.07;;;;;;;;;;6295862;28;20027;-76
2023/01/27 00:27:15;;;;;;;2.47;2.38;;;;;;;;;;6290988;28;20021;-76
2023/01/27 00:30:16;;;;;;;7.33;5.47;;;;;;;;;;6296245;28;20032;-76
2023/01/27 00:33:28;;;;;;;8.13;7.30;;;;;;;;;;6308099;28;20086;-77
2023/01/27 00:36:28;;;;;;;11.55;7.78;;;;;;;;;;6316479;28;20525;-77
2023/01/27 00:39:28;;;;;;;2.40;2.30;;;;;;;;;;6319477;28;20012;-77
2023/01/27 00:42:29;;;;;;;9.93;4.23;;;;;;;;;;6319932;28;20483;-77
2023/01/27 00:45:47;;;;;;;13.32;6.47;;;;;;;;;;6316210;28;20024;-77
2023/01/27 00:48:47;;;;;;;2.00;1.90;;;;;;;;;;6309642;28;20065;-77
2023/01/27 00:51:48;;;;;;;5.50;3.83;;;;;;;;;;6313593;28;20024;-78
2023/01/27 00:54:48;;;;;;;9.82;4.28;;;;;;;;;;6318330;28;20017;-78
2023/01/27 00:57:48;;;;;;;12.80;8.53;;;;;;;;;;6322245;28;20582;-79
2023/01/27 01:00:48;;;;;;;1.87;1.80;;;;;;;;;;6320063;28;20305;-78
2023/01/27 01:03:49;;;;;;;7.57;7.07;;;;;;;;;;6319655;28;20459;-78
2023/01/27 01:06:49;;;;;;;3.50;3.30;;;;;;;;;;6316231;28;20032;-78
2023/01/27 01:09:49;;;;;;;2.37;2.27;;;;;;;;;;6319587;28;20016;-78
2023/01/27 01:12:49;;;;;;;6.93;6.43;;;;;;;;;;6320478;28;20012;-78
2023/01/27 01:15:49;;;;;;;1.80;1.77;;;;;;;;;;6315342;28;20103;-79
2023/01/27 01:18:50;;;;;;;2.00;1.90;;;;;;;;;;6319201;28;20043;-79
2023/01/27 01:21:50;;;;;;;1.27;1.27;;;;;;;;;;6317947;28;20020;-79
2023/01/27 01:24:50;;;;;;;0.87;0.87;;;;;;;;;;6317842;28;20024;-79
2023/01/27 01:27:50;;;;;;;13.27;2.10;;;;;;;;;;6318506;28;20031;-79
2023/01/27 01:30:51;;;;;;;0.63;0.63;;;;;;;;;;6313183;28;20039;-79
2023/01/27 01:33:51;;;;;;;3.33;3.07;;;;;;;;;;6295991;28;20028;-79
2023/01/27 01:36:51;;;;;;;2.55;2.35;;;;;;;;;;6268516;28;20059;-79
2023/01/27 01:39:51;;;;;;;2.87;2.67;;;;;;;;;;6276783;28;20056;-79
2023/01/27 01:42:52;;;;;;;5.95;5.65;;;;;;;;;;6288539;28;20044;-79
2023/01/27 01:45:56;;;;;;;10.07;7.28;;;;;;;;;;6270207;28;20051;-79
2023/01/27 01:48:58;;;;;;;2.97;2.78;;;;;;;;;;6276354;28;20020;-79
2023/01/27 01:52:06;;;;;;;4.00;3.67;;;;;;;;;;6295191;28;20073;-79
2023/01/27 01:55:06;;;;;;;6.00;5.60;;;;;;;;;;6276878;28;20024;-79
2023/01/27 01:58:07;;;;;;;2.57;2.47;;;;;;;;;;6276913;28;20043;-79
2023/01/27 02:01:08;;;;;;;12.25;7.00;;;;;;;;;;6277588;28;20523;-79
2023/01/27 02:04:09;;;;;;;3.10;2.90;;;;;;;;;;6290252;28;20095;-80
2023/01/27 02:07:12;;;;;;;1.73;1.73;;;;;;;;;;6287080;28;20021;-79
2023/01/27 02:10:12;;;;;;;3.65;3.35;;;;;;;;;;6291681;28;20031;-79
2023/01/27 02:13:12;;;;;;;7.83;7.07;;;;;;;;;;6293456;28;20021;-79
2023/01/27 02:16:12;;;;;;;1.47;1.47;;;;;;;;;;6273097;28;20025;-79
2023/01/27 02:19:23;;;;;;;0.50;0.50;;;;;;;;;;6276360;28;20052;-79
2023/01/27 02:22:28;;;;;;;5.60;2.88;;;;;;;;;;6275682;28;20025;-79
2023/01/27 02:25:35;;;;;;;6.00;5.57;;;;;;;;;;6276634;28;20024;-79
2023/01/27 02:28:35;;;;;;;3.17;3.03;;;;;;;;;;6289775;28;20381;-79
2023/01/27 02:31:35;;;;;;;1.07;0.90;;;;;;;;;;6293857;28;20053;-79
2023/01/27 02:34:36;;;;;;;4.07;3.77;;;;;;;;;;6284965;28;20499;-80
2023/01/27 02:37:37;;;;;;;8.60;7.88;;;;;;;;;;6288969;28;20016;-80
2023/01/27 02:40:38;;;;;;;9.03;5.57;;;;;;;;;;6293778;28;20483;-79
2023/01/27 02:43:38;;;;;;;2.37;2.17;;;;;;;;;;6294247;28;20020;-79
2023/01/27 02:46:38;;;;;;;5.77;5.20;;;;;;;;;;6272971;28;20094;-80
2023/01/27 02:49:38;;;;;;;1.77;1.75;;;;;;;;;;6294447;28;20372;-80
2023/01/27 02:52:38;;;;;;;2.77;2.57;;;;;;;;;;6292574;28;20032;-79
2023/01/27 02:55:39;;;;;;;3.63;2.88;;;;;;;;;;6292498;28;20016;-79
2023/01/27 02:58:39;;;;;;;6.63;5.75;;;;;;;;;;6278515;28;20026;-79
2023/01/27 03:01:39;;;;;;;3.90;3.60;;;;;;;;;;6278320;28;20021;-79
2023/01/27 03:04:39;;;;;;;6.43;5.80;;;;;;;;;;6294190;28;20020;-79
2023/01/27 03:07:40;;;;;;;1.10;1.10;;;;;;;;;;6271142;28;20032;-79
2023/01/27 03:10:41;;;;;;;9.32;8.23;;;;;;;;;;6277259;28;20093;-79
2023/01/27 03:13:41;;;;;;;5.20;4.07;;;;;;;;;;6277091;28;20528;-80
2023/01/27 03:19:59;;;;;;;4.30;4.00;;;;;;;;;;6299765;28;20013;-80
2023/01/27 03:23:00;;;;;;;1.50;1.50;;;;;;;;;;6282002;28;20074;-80
2023/01/27 03:26:01;;;;;;;0.93;0.93;;;;;;;;;;6280483;28;20256;-79
2023/01/27 03:32:25;;;;;;;6.78;4.07;;;;;;;;;;6293549;28;20250;-79
2023/01/27 03:35:32;;;;;;;1.67;1.67;;;;;;;;;;6275368;28;20017;-79
2023/01/27 03:48:30;;;;;;;1.23;1.23;;;;;;;;;;6295585;28;20021;-79
2023/01/27 03:51:31;;;;;;;1.67;1.67;;;;;;;;;;6298393;28;20017;-79
2023/01/27 03:54:31;;;;;;;2.37;2.27;;;;;;;;;;6290139;28;20523;-79
2023/01/27 03:57:31;;;;;;;1.77;1.67;;;;;;;;;;6292015;28;20024;-79
2023/01/27 04:00:31;;;;;;;6.38;6.03;;;;;;;;;;6297839;28;20099;-78
2023/01/27 04:06:55;;;;;;;2.80;2.25;;;;;;;;;;6297505;28;20036;-78
2023/01/27 04:09:55;;;;;;;3.13;2.97;;;;;;;;;;6291589;28;20397;-78
2023/01/27 04:12:55;;;;;;;2.27;2.13;;;;;;;;;;6278841;28;20099;-78
2023/01/27 04:15:55;;;;;;;4.13;3.42;;;;;;;;;;6294666;28;20020;-78
2023/01/27 04:18:56;;;;;;;2.28;2.17;;;;;;;;;;6277045;28;20021;-78
2023/01/27 04:21:57;;;;;;;2.87;2.67;;;;;;;;;;6279346;28;20361;-78
2023/01/27 04:24:57;;;;;;;2.00;1.90;;;;;;;;;;6297565;28;20384;-78
2023/01/27 04:27:57;;;;;;;1.13;1.13;;;;;;;;;;6274015;28;20025;-78
2023/01/27 04:30:57;;;;;;;1.35;1.25;;;;;;;;;;6269727;28;20528;-78
2023/01/27 04:33:58;;;;;;;2.47;2.37;;;;;;;;;;6290339;28;20024;-77
2023/01/27 04:36:58;;;;;;;9.83;5.53;;;;;;;;;;6276310;28;20021;-78
2023/01/27 04:39:58;;;;;;;3.33;3.10;;;;;;;;;;6277916;28;20377;-78
2023/01/27 04:42:58;;;;;;;1.73;1.63;;;;;;;;;;6264572;28;20044;-78
2023/01/27 04:45:58;;;;;;;4.10;3.80;;;;;;;;;;6288402;28;20110;-78
2023/01/27 04:48:59;;;;;;;1.45;1.05;;;;;;;;;;6274264;28;20028;-78
2023/01/27 04:51:59;;;;;;;3.83;3.47;;;;;;;;;;6273042;28;20031;-77
2023/01/27 04:55:00;;;;;;;2.03;1.92;;;;;;;;;;6275928;28;20507;-77
2023/01/27 04:58:00;;;;;;;11.53;7.00;;;;;;;;;;6296491;28;20013;-77
2023/01/27 05:01:00;;;;;;;1.07;1.07;;;;;;;;;;6294862;28;20024;-78
2023/01/27 05:04:00;;;;;;;3.77;1.70;;;;;;;;;;6296341;28;20021;-77
2023/01/27 05:07:01;;;;;;;10.77;5.93;;;;;;;;;;6277419;28;20023;-78
2023/01/27 05:10:01;;;;;;;2.67;2.33;;;;;;;;;;6294937;28;20430;-77
2023/01/27 05:13:02;;;;;;;2.60;2.50;;;;;;;;;;6272466;28;20027;-78
2023/01/27 05:16:31;;;;;;;1.53;1.53;;;;;;;;;;6271285;28;20029;-77
2023/01/27 05:19:31;;;;;;;2.75;2.55;;;;;;;;;;6273689;28;20033;-77
2023/01/27 05:22:31;;;;;;;1.25;1.25;;;;;;;;;;6297732;28;20024;-77
2023/01/27 05:25:32;;;;;;;1.33;1.33;;;;;;;;;;6296320;28;20474;-77
2023/01/27 05:28:32;;;;;;;3.05;1.98;;;;;;;;;;6276256;28;20042;-77
2023/01/27 05:31:32;;;;;;;0.80;0.80;;;;;;;;;;6295380;28;20048;-77
2023/01/27 05:34:33;;;;;;;12.80;6.90;;;;;;;;;;6270892;28;20021;-77
2023/01/27 05:37:33;;;;;;;4.37;4.13;;;;;;;;;;6288434;28;20142;-77
2023/01/27 05:40:33;;;;;;;4.13;3.33;;;;;;;;;;6292554;28;20016;-77
2023/01/27 05:43:34;;;;;;;6.05;5.60;;;;;;;;;;6265973;28;20021;-77
2023/01/27 05:46:36;;;;;;;2.47;2.38;;;;;;;;;;6272656;28;20017;-77
2023/01/27 05:49:36;;;;;;;;;;;;;;;;;;6293325;28;20571;-77
2023/01/27 05:52:36;;;;;;;2.28;2.17;;;;;;;;;;6292668;28;20421;-77
2023/01/27 05:55:37;;;;;;;7.22;3.90;;;;;;;;;;6277088;28;20044;-77
2023/01/27 05:58:37;;;;;;;2.20;2.13;;;;;;;;;;6292712;28;20012;-77
2023/01/27 06:01:38;;;;;;;4.03;3.67;;;;;;;;;;6276993;28;20092;-77
2023/01/27 06:04:38;;;;;;;1.77;1.70;;;;;;;;;;6294316;28;20027;-77
2023/01/27 06:07:38;;;;;;;4.50;4.30;;;;;;;;;;6276897;28;20013;-77
2023/01/27 06:10:38;;;;;;;5.15;4.72;;;;;;;;;;6291476;28;20358;-77
2023/01/27 06:13:39;;;;;;;2.17;2.05;;;;;;;;;;6274385;28;20076;-77
2023/01/27 06:16:39;;;;;;;2.73;2.17;;;;;;;;;;6275920;28;20024;-77
2023/01/27 06:19:39;;;;;;;3.37;3.13;;;;;;;;;;6277650;28;20088;-77
2023/01/27 06:22:39;;;;;;;7.00;3.33;;;;;;;;;;6264391;28;20009;-77
2023/01/27 06:25:41;;;;;;;0.75;0.75;;;;;;;;;;6264346;28;20361;-76
2023/01/27 06:28:41;;;;;;;;;;;;;;;;;;6290810;28;20020;-77
2023/01/27 06:31:41;;;;;;;5.63;5.07;;;;;;;;;;6292169;28;20013;-77
2023/01/27 06:34:41;;;;;;;3.63;2.53;;;;;;;;;;6294052;28;20033;-77
2023/01/27 06:37:42;;;;;;;5.17;4.77;;;;;;;;;;6284713;28;20028;-76
2023/01/27 06:40:42;;;;;;;4.83;4.47;;;;;;;;;;6273808;28;20028;-77
2023/01/27 06:43:43;;;;;;;6.27;4.80;;;;;;;;;;6267045;28;20392;-77
2023/01/27 06:46:43;;;;;;;1.40;1.40;;;;;;;;;;6281735;28;20017;-76
2023/01/27 06:49:43;;;;;;;4.13;3.87;;;;;;;;;;6277673;28;20024;-76
2023/01/27 06:52:43;;;;;;;4.00;3.67;;;;;;;;;;6274560;28;20100;-77
2023/01/27 06:55:44;;;;;;;12.33;4.53;;;;;;;;;;6263467;28;20025;-77
2023/01/27 06:58:44;;;;;;;3.63;3.30;;;;;;;;;;6283114;28;20040;-76
2023/01/27 07:01:44;;;;;;;2.47;2.00;;;;;;;;;;6267512;28;20023;-76
2023/01/27 07:04:45;;;;;;;5.93;5.55;;;;;;;;;;6269515;28;20117;-77
2023/01/27 07:07:45;;;;;;;4.50;4.17;;;;;;;;;;6287664;28;20550;-77
2023/01/27 07:10:45;;;;;;;2.67;2.57;;;;;;;;;;6266497;28;20043;-77
2023/01/27 07:13:45;;;;;;;5.97;5.40;;;;;;;;;;6266541;28;20021;-77
2023/01/27 07:16:46;;;;;;;12.30;4.78;;;;;;;;;;6265804;28;20039;-77
2023/01/27 07:19:46;;;;;;;6.07;5.63;;;;;;;;;;6284771;28;20416;-77
2023/01/27 07:22:46;;;;;;;2.67;2.57;;;;;;;;;;6284429;28;20017;-77
2023/01/27 07:25:46;;;;;;;1.20;1.20;;;;;;;;;;6281623;28;20029;-77
2023/01/27 07:28:46;;;;;;;13.73;5.70;;;;;;;;;;6275525;28;20702;-77
2023/01/27 07:31:47;;;;;;;0.60;0.60;;;;;;;;;;6281985;28;20040;-77
2023/01/27 07:34:47;;;;;;;3.27;3.17;;;;;;;;;;6276842;28;20021;-77
2023/01/27 07:37:47;;;;;;;2.47;2.37;;;;;;;;;;6268370;28;20005;-77
2023/01/27 07:40:47;;;;;;;3.87;3.67;;;;;;;;;;6287060;28;20366;-77
2023/01/27 07:43:48;;;;;;;2.93;1.60;;;;;;;;;;6292825;28;20013;-77
2023/01/27 07:46:48;;;;;;;4.90;4.63;;;;;;;;;;6273361;28;20103;-77
2023/01/27 07:49:48;;;;;;;0.57;0.57;;;;;;;;;;6287155;28;20028;-77
2023/01/27 07:52:48;;;;;;;6.07;5.63;;;;;;;;;;6265835;28;20029;-76
2023/01/27 07:55:48;;;;;;;1.13;1.13;;;;;;;;;;6282899;28;20496;-76
2023/01/27 07:58:49;;;;;;;3.50;3.30;;;;;;;;;;6268292;28;20392;-77
2023/01/27 08:01:49;;;;;;;3.07;2.97;;;;;;;;;;6280623;28;20012;-77
2023/01/27 08:04:57;;;;;;;5.50;5.13;;;;;;;;;;6277194;28;20477;-77
2023/01/27 08:07:57;;;;;;;6.30;3.95;;;;;;;;;;6281911;28;20009;-77
2023/01/27 08:11:02;;;;;;;3.53;3.30;;;;;;;;;;6281423;28;20397;-77
2023/01/27 08:14:02;;;;;;;5.60;4.75;;;;;;;;;;6280241;28;20216;-77
2023/01/27 08:17:03;;;;;;;0.83;0.83;;;;;;;;;;6264605;28;20031;-77
2023/01/27 08:20:03;;;;;;;1.53;1.43;;;;;;;;;;6284118;28;20021;-77
2023/01/27 08:23:03;;;;;;;4.03;3.73;;;;;;;;;;6290896;28;20044;-77
2023/01/27 08:26:04;;;;;;;3.20;2.97;;;;;;;;;;6284452;28;20020;-77
2023/01/27 08:29:05;;;;;;;8.32;5.95;;;;;;;;;;6292763;28;20486;-77
2023/01/27 08:32:06;;;;;;;4.13;2.80;;;;;;;;;;6295241;28;20045;-76
2023/01/27 08:35:06;;;;;;;5.83;5.37;;;;;;;;;;6276162;28;20048;-76
2023/01/27 08:38:06;;;;;;;2.93;2.73;;;;;;;;;;6267799;28;20503;-76
2023/01/27 08:41:08;;;;;;;24.00;5.80;;;;;;;;;;6266937;28;20020;-77
2023/01/27 08:44:08;;;;;;;;;;;;;;;;;;6269378;28;20028;-77
2023/01/27 08:47:08;;;;;;;2.53;2.42;;;;;;;;;;6269264;28;19947;-76
2023/01/27 08:50:09;;;;;;;12.53;6.50;;;;;;;;;;6283022;28;20027;-77
2023/01/27 08:53:09;;;;;;;13.20;7.63;;;;;;;;;;6281176;28;20023;-76
2023/01/27 08:56:11;;;;;;;2.37;2.17;;;;;;;;;;6280784;28;20013;-77
2023/01/27 08:59:11;;;;;;;8.90;7.97;;;;;;;;;;6279402;28;20393;-77
2023/01/27 09:02:11;;;;;;;16.47;3.90;;;;;;;;;;6278798;28;20036;-77
2023/01/27 09:05:12;;;;;;;6.13;4.00;;;;;;;;;;6280687;28;20103;-76
2023/01/27 09:08:12;;;;;;;2.93;2.83;;;;;;;;;;6277090;28;20054;-76
2023/01/27 09:11:13;;;;;;;5.00;4.53;;;;;;;;;;6271554;28;20098;-77
2023/01/27 09:14:14;;;;;;;2.60;2.50;;;;;;;;;;6267151;28;20017;-77
2023/01/27 09:17:18;;;;;;;11.37;6.67;;;;;;;;;;6279045;28;20048;-75
2023/01/27 09:20:18;;;;;;;5.68;4.68;;;;;;;;;;6258415;28;20536;-77
2023/01/27 09:23:18;;;;;;;4.00;3.77;;;;;;;;;;6267413;28;20025;-76
2023/01/27 09:26:19;;;;;;;3.13;3.00;;;;;;;;;;6270651;28;20029;-77
2023/01/27 09:29:19;;;;;;;2.17;2.07;;;;;;;;;;6265059;28;20041;-76
2023/01/27 09:32:19;;;;;;;3.30;3.13;;;;;;;;;;6287820;28;20040;-76
2023/01/27 09:35:19;;;;;;;5.60;4.97;;;;;;;;;;6315816;28;20045;-76
2023/01/27 09:38:21;;;;;;;1.20;1.20;;;;;;;;;;6299810;28;20095;-77
2023/01/27 09:41:21;;;;;;;5.93;5.38;;;;;;;;;;6318839;28;20011;-77
2023/01/27 09:44:25;;;;;;;1.97;1.87;;;;;;;;;;6317265;28;20024;-76
2023/01/27 09:47:25;;;;;;;4.85;4.47;;;;;;;;;;6316595;28;20039;-76
2023/01/27 09:50:34;;;;;;;3.22;2.72;;;;;;;;;;6318163;28;20015;-76
2023/01/27 09:53:34;;;;;;;5.80;4.72;;;;;;;;;;6315114;28;20049;-77
2023/01/27 09:56:37;;;;;;;4.07;3.75;;;;;;;;;;6318910;28;20020;-76
2023/01/27 09:59:54;;;;;;;24.92;9.18;;;;;;;;;;6306404;28;20020;-76
2023/01/27 10:03:07;;;;;;;1.98;1.92;;;;;;;;;;6299079;28;20070;-77
2023/01/27 10:06:22;;;;;;;2.47;2.38;;;;;;;;;;6308844;28;20476;-76
2023/01/27 10:09:34;;;;;;;4.93;4.68;;;;;;;;;;6306226;28;20042;-77
2023/01/27 10:12:53;;;;;;;6.40;3.90;;;;;;;;;;6305310;28;20026;-77
2023/01/27 10:16:19;;;;;;;4.03;3.72;;;;;;;;;;6310165;28;20111;-76
2023/01/27 10:19:24;;;;;;;2.88;2.72;;;;;;;;;;6303626;28;20020;-76
2023/01/27 10:22:25;;;;;;;4.30;3.95;;;;;;;;;;6308313;28;20020;-77
2023/01/27 10:25:42;;;;;;;3.37;3.13;;;;;;;;;;6306851;28;20509;-76
2023/01/27 10:28:46;;;;;;;3.85;3.65;;;;;;;;;;6324494;28;20426;-77
2023/01/27 10:32:00;;;;;;;10.07;3.67;;;;;;;;;;6321071;28;20053;-77
2023/01/27 10:35:12;;;;;;;1.75;1.73;;;;;;;;;;6313210;28;20083;-77
2023/01/27 10:38:19;;;;;;;2.33;2.17;;;;;;;;;;6319923;28;20020;-77
2023/01/27 10:41:22;;;;;;;3.45;3.25;;;;;;;;;;6317468;28;20462;-77
2023/01/27 10:44:49;;;;;;;3.97;3.03;;;;;;;;;;6312833;28;20159;-77
2023/01/27 10:47:54;;;;;;;2.35;1.33;;;;;;;;;;6312696;28;20032;-77
2023/01/27 10:51:09;;;;;;;2.47;2.35;;;;;;;;;;6320741;28;20024;-79
2023/01/27 10:54:17;;;;;;;9.13;6.55;;;;;;;;;;6325505;28;20052;-78
2023/01/27 10:57:21;;;;;;;11.48;5.18;;;;;;;;;;6318284;28;20454;-78
2023/01/27 11:00:40;;;;;;;2.60;2.40;;;;;;;;;;6312926;28;20039;-78
2023/01/27 11:03:46;;;;;;;5.40;5.00;;;;;;;;;;6319220;28;20382;-79
2023/01/27 11:06:47;;;;;;;1.83;1.67;;;;;;;;;;6331355;28;20020;-80
2023/01/27 11:09:50;;;;;;;2.03;1.87;;;;;;;;;;6317290;28;20028;-80
2023/01/27 11:12:53;;;;;;;4.55;4.32;;;;;;;;;;6307822;28;20024;-79
2023/01/27 11:15:53;;;;;;;3.63;3.42;;;;;;;;;;6312571;28;20028;-79
2023/01/27 11:18:55;;;;;;;6.33;5.20;;;;;;;;;;6321548;28;20380;-78
2023/01/27 11:21:55;;;;;;;;;;;;;;;;;;6318988;28;20036;-78
2023/01/27 11:25:09;;;;;;;1.73;1.67;;;;;;;;;;6312404;28;19914;-76
2023/01/27 11:28:10;;;;;;;3.33;3.05;;;;;;;;;;6307814;28;20529;-75
2023/01/27 11:31:31;;;;;;;2.03;1.93;;;;;;;;;;6301196;28;20146;-76
2023/01/27 11:34:40;;;;;;;1.05;1.05;;;;;;;;;;6257006;28;20013;-77
2023/01/27 11:37:42;;;;;;;7.57;3.42;;;;;;;;;;6272139;28;20020;-76
2023/01/27 11:40:43;;;;;;;6.50;6.00;;;;;;;;;;6261063;28;20029;-78
2023/01/27 11:43:43;;;;;;;5.87;5.37;;;;;;;;;;6268859;28;20020;-78
2023/01/27 11:46:44;;;;;;;1.13;1.13;;;;;;;;;;6266639;28;20027;-77
2023/01/27 11:49:45;;;;;;;1.63;1.60;;;;;;;;;;6290104;28;20017;-77
2023/01/27 11:53:04;;;;;;;7.18;3.13;;;;;;;;;;6274873;28;20070;-77
2023/01/27 11:56:09;;;;;;;1.95;1.85;;;;;;;;;;6265704;28;20033;-78
2023/01/27 11:59:27;;;;;;;1.85;1.75;;;;;;;;;;6282510;28;20568;-78
2023/01/27 12:02:30;;;;;;;3.50;3.35;;;;;;;;;;6277270;28;20016;-78
2023/01/27 12:05:33;;;;;;;1.95;1.88;;;;;;;;;;6289032;28;20025;-79
2023/01/27 12:08:38;;;;;;;4.93;2.47;;;;;;;;;;6267375;28;20464;-79
2023/01/27 12:11:38;;;;;;;10.88;6.05;;;;;;;;;;6297699;28;20050;-78
2023/01/27 12:14:46;;;;;;;2.03;1.93;;;;;;;;;;6275684;28;20021;-78
2023/01/27 12:17:49;;;;;;;4.45;4.13;;;;;;;;;;6281570;28;20013;-79
2023/01/27 12:20:57;;;;;;;1.45;1.45;;;;;;;;;;6299192;28;20017;-78
2023/01/27 12:23:57;;;;;;;4.05;3.75;;;;;;;;;;6280172;28;20115;-79
2023/01/27 12:26:59;;;;;;;3.23;2.43;;;;;;;;;;6280073;28;20392;-78
2023/01/27 12:30:01;;;;;;;4.15;2.95;;;;;;;;;;6281601;28;20039;-78
2023/01/27 12:33:10;;;;;;;2.08;1.95;;;;;;;;;;6314211;28;20044;-78
2023/01/27 12:36:13;;;;;;;4.05;3.00;;;;;;;;;;6324501;28;20472;-80
2023/01/27 12:39:31;;;;;;;0.30;0.30;;;;;;;;;;6312612;28;20035;-79
2023/01/27 12:42:36;;;;;;;3.92;3.70;;;;;;;;;;6315775;28;20058;-79
2023/01/27 12:45:37;;;;;;;6.53;4.38;;;;;;;;;;6309394;28;20095;-79
2023/01/27 12:48:48;;;;;;;2.23;2.10;;;;;;;;;;6308212;28;20013;-79
2023/01/27 12:51:50;;;;;;;4.18;3.97;;;;;;;;;;6307775;28;20427;-78
2023/01/27 12:54:52;;;;;;;1.25;1.25;;;;;;;;;;6310524;28;20050;-79
2023/01/27 12:57:53;;;;;;;1.60;1.60;;;;;;;;;;6325411;28;20024;-79
2023/01/27 13:00:53;;;;;;;2.93;2.73;;;;;;;;;;6309642;28;20029;-79
2023/01/27 13:03:56;;;;;;;0.93;0.90;;;;;;;;;;6315181;28;20023;-78
2023/01/27 13:07:03;;;;;;;3.13;2.92;;;;;;;;;;6314454;28;20392;-78
2023/01/27 13:10:05;;;;;;;4.93;4.50;;;;;;;;;;6312580;28;20016;-79
2023/01/27 13:13:16;;;;;;;1.65;1.50;;;;;;;;;;6310332;28;20021;-79
2023/01/27 13:16:21;;;;;;;3.85;3.65;;;;;;;;;;6312806;28;20364;-78
2023/01/27 13:19:25;;;;;;;3.22;2.95;;;;;;;;;;6303555;28;20023;-79
2023/01/27 13:22:25;;;;;;;4.05;2.95;;;;;;;;;;6313110;28;20009;-79
2023/01/27 13:25:37;;;;;;;0.90;0.80;;;;;;;;;;6325551;28;20024;-79
2023/01/27 13:28:51;;;;;;;2.63;2.43;;;;;;;;;;6317101;28;20023;-78
2023/01/27 13:35:32;;;;;;;2.25;2.15;;;;;;;;;;6284259;28;20111;-79
2023/01/27 13:38:52;;;;;;;3.58;2.35;;;;;;;;;;6272859;28;20013;-79
2023/01/27 13:42:03;;;;;;;1.33;1.27;;;;;;;;;;6258135;28;20056;-79
2023/01/27 13:45:14;;;;;;;8.55;5.88;;;;;;;;;;6295184;28;20035;-78
2023/01/27 13:48:18;;;;;;;7.50;4.67;;;;;;;;;;6288616;28;20051;-78
2023/01/27 13:51:22;;;;;;;1.60;1.50;;;;;;;;;;6277539;28;20116;-79
2023/01/27 13:54:24;;;;;;;3.78;2.75;;;;;;;;;;6288963;28;20082;-80
2023/01/27 13:57:24;;;;;;;;;;;;;;;;;;6271242;28;20012;-78
2023/01/27 14:00:30;;;;;;;4.45;4.05;;;;;;;;;;6270080;28;19908;-78
2023/01/27 14:03:42;;;;;;;2.85;2.55;;;;;;;;;;6278096;28;20587;-78
2023/01/27 14:06:49;;;;;;;7.10;3.85;;;;;;;;;;6286028;28;20031;-78
2023/01/27 14:09:50;;;;;;;4.03;3.72;;;;;;;;;;6287616;28;20023;-78
2023/01/27 14:12:50;;;;;;;2.97;2.87;;;;;;;;;;6270333;28;20021;-78
2023/01/27 14:16:01;;;;;;;2.23;2.13;;;;;;;;;;6272961;28;20017;-78
2023/01/27 14:19:07;;;;;;;1.73;1.67;;;;;;;;;;6278878;28;20066;-79
2023/01/27 14:22:17;;;;;;;5.32;4.82;;;;;;;;;;6268097;28;20086;-78
2023/01/27 14:25:22;;;;;;;1.98;1.92;;;;;;;;;;6277247;28;20016;-79
2023/01/27 14:28:31;;;;;;;2.58;2.35;;;;;;;;;;6269826;28;20048;-79
2023/01/27 14:31:36;;;;;;;3.33;2.17;;;;;;;;;;6266133;28;20132;-79
2023/01/27 14:34:43;;;;;;;3.15;3.03;;;;;;;;;;6267059;28;20039;-79
2023/01/27 14:37:59;;;;;;;4.32;2.95;;;;;;;;;;6270165;28;20422;-79
2023/01/27 14:41:05;;;;;;;3.35;3.08;;;;;;;;;;6265109;28;20020;-79
2023/01/27 14:44:11;;;;;;;3.22;2.42;;;;;;;;;;6277629;28;20362;-79
2023/01/27 14:47:17;;;;;;;5.10;4.78;;;;;;;;;;6266358;28;20223;-79
2023/01/27 14:50:22;;;;;;;2.78;2.58;;;;;;;;;;6263389;28;20084;-79
2023/01/27 14:53:22;;;;;;;6.78;5.07;;;;;;;;;;6263411;28;20067;-79
2023/01/27 14:56:28;;;;;;;5.95;5.57;;;;;;;;;;6269136;28;20025;-80
2023/01/27 14:59:41;;;;;;;4.97;4.60;;;;;;;;;;6281994;28;20016;-79
2023/01/27 15:03:07;;;;;;;5.90;5.07;;;;;;;;;;6274483;28;20536;-80
2023/01/27 15:06:28;;;;;;;8.57;6.93;;;;;;;;;;6270172;28;20052;-79
2023/01/27 15:09:36;;;;;;;3.47;3.28;;;;;;;;;;6282389;28;20086;-79
2023/01/27 15:12:49;;;;;;;3.00;1.85;;;;;;;;;;6272193;28;20025;-80
2023/01/27 15:16:04;;;;;;;1.40;1.40;;;;;;;;;;6270908;28;20028;-79
2023/01/27 15:19:19;;;;;;;1.33;1.25;;;;;;;;;;6293890;28;20087;-79
2023/01/27 15:26:00;;;;;;;10.52;5.38;;;;;;;;;;6284916;28;20012;-79
2023/01/27 15:29:00;;;;;;;9.70;5.60;;;;;;;;;;6276024;28;20038;-78
2023/01/27 15:32:11;;;;;;;1.13;1.13;;;;;;;;;;6283545;28;20052;-78
2023/01/27 15:35:21;;;;;;;0.97;0.97;;;;;;;;;;6320248;28;20020;-78
2023/01/27 15:38:30;;;;;;;1.38;1.38;;;;;;;;;;6314396;28;20012;-80
2023/01/27 15:41:30;;;;;;;1.80;1.70;;;;;;;;;;6317997;28;20012;-79
2023/01/27 15:44:38;;;;;;;6.63;3.13;;;;;;;;;;6320282;28;20070;-79
2023/01/27 15:47:39;;;;;;;1.15;1.15;;;;;;;;;;6318425;28;20012;-79
2023/01/27 15:50:45;;;;;;;10.30;3.72;;;;;;;;;;6320923;28;20008;-79
2023/01/27 15:53:50;;;;;;;1.38;1.35;;;;;;;;;;6313438;28;20103;-79
2023/01/27 15:56:52;;;;;;;0.40;0.40;;;;;;;;;;6315962;28;20023;-79
2023/01/27 16:00:01;;;;;;;1.90;1.85;;;;;;;;;;6319048;28;20043;-79
2023/01/27 16:03:03;;;;;;;2.97;2.72;;;;;;;;;;6320214;28;20028;-79
2023/01/27 16:06:24;;;;;;;4.28;3.90;;;;;;;;;;6315089;28;20501;-79
2023/01/27 16:09:30;;;;;;;2.75;2.60;;;;;;;;;;6315588;28;20111;-79
2023/01/27 16:12:35;;;;;;;1.25;1.17;;;;;;;;;;6322047;28;20028;-77
2023/01/27 16:15:37;;;;;;;5.18;2.15;;;;;;;;;;6318223;28;20012;-78
2023/01/27 16:18:58;;;;;;;4.53;3.97;;;;;;;;;;6304681;28;20019;-78
2023/01/27 16:22:01;;;;;;;2.28;2.17;;;;;;;;;;6307591;28;20122;-78
2023/01/27 16:25:17;;;;;;;3.60;3.40;;;;;;;;;;6310265;28;20024;-79
2023/01/27 16:28:26;;;;;;;1.27;1.27;;;;;;;;;;6314477;28;20045;-79
2023/01/27 16:31:29;;;;;;;4.18;3.83;;;;;;;;;;6311417;28;20069;-79
2023/01/27 16:34:40;;;;;;;3.25;3.03;;;;;;;;;;6320532;28;20085;-79
2023/01/27 16:37:55;;;;;;;2.55;2.45;;;;;;;;;;6317445;28;20357;-79
2023/01/27 16:41:00;;;;;;;9.15;5.82;;;;;;;;;;6307357;28;20020;-79
2023/01/27 16:44:02;;;;;;;1.05;0.93;;;;;;;;;;6313997;28;20535;-79
2023/01/27 16:47:05;;;;;;;1.73;1.63;;;;;;;;;;6315625;28;20028;-79
2023/01/27 16:50:11;;;;;;;6.07;5.10;;;;;;;;;;6313794;28;20024;-79
2023/01/27 16:53:18;;;;;;;6.30;2.58;;;;;;;;;;6319804;28;20024;-79
2023/01/27 16:56:30;;;;;;;4.90;4.60;;;;;;;;;;6316829;28;20015;-79
2023/01/27 16:59:30;;;;;;;;;;;;;;;;;;6318720;28;20477;-79
2023/01/27 17:02:31;;;;;;;5.43;4.95;;;;;;;;;;6309790;28;20408;-79
2023/01/27 17:05:31;;;;;;;0.83;0.83;;;;;;;;;;6316074;28;20024;-79
2023/01/27 17:08:34;;;;;;;2.30;2.20;;;;;;;;;;6322451;28;20074;-79
2023/01/27 17:11:35;;;;;;;2.20;2.10;;;;;;;;;;6311530;28;21403;-79
2023/01/27 17:14:37;;;;;;;3.13;2.97;;;;;;;;;;6303581;28;20025;-79
2023/01/27 17:17:37;;;;;;;0.70;0.70;;;;;;;;;;6303788;28;20023;-79
2023/01/27 17:20:39;;;;;;;1.40;1.40;;;;;;;;;;6312866;28;20359;-79
2023/01/27 17:23:42;;;;;;;2.28;2.17;;;;;;;;;;6302293;28;20038;-79
2023/01/27 17:26:43;;;;;;;2.00;1.90;;;;;;;;;;6305781;28;20039;-78
2023/01/27 17:29:44;;;;;;;;;;;;;;;;;;6305895;28;20473;-78
2023/01/27 17:32:49;;;;;;;2.05;1.95;;;;;;;;;;6297466;28;20399;-78
2023/01/27 17:35:51;;;;;;;4.05;3.78;;;;;;;;;;6275298;28;20029;-78
2023/01/27 17:38:53;;;;;;;2.88;2.67;;;;;;;;;;6275701;28;20460;-78
2023/01/27 17:41:58;;;;;;;2.65;2.53;;;;;;;;;;6264777;28;20037;-78
2023/01/27 17:45:19;;;;;;;1.95;1.85;;;;;;;;;;6267102;28;20040;-78
2023/01/27 17:48:19;;;;;;;7.45;4.15;;;;;;;;;;6292436;28;20036;-79
2023/01/27 17:51:23;;;;;;;12.10;8.10;;;;;;;;;;6264618;28;20435;-78
2023/01/27 17:54:37;;;;;;;4.15;3.88;;;;;;;;;;6268712;28;20024;-78
2023/01/27 17:57:37;;;;;;;0.98;0.98;;;;;;;;;;6288383;28;20031;-79
2023/01/27 18:00:39;;;;;;;2.77;2.57;;;;;;;;;;6296621;28;20012;-79
2023/01/27 18:03:39;;;;;;;7.47;6.60;;;;;;;;;;6278638;28;20013;-79
2023/01/27 18:06:40;;;;;;;3.97;3.70;;;;;;;;;;6274782;28;20514;-79
2023/01/27 18:09:49;;;;;;;3.27;2.53;;;;;;;;;;6268092;28;20029;-79
2023/01/27 18:12:50;;;;;;;6.80;5.57;;;;;;;;;;6274569;28;20089;-79
2023/01/27 18:16:23;;;;;;;1.33;1.33;;;;;;;;;;6276825;28;20044;-79
2023/01/27 18:19:24;;;;;;;7.15;5.50;;;;;;;;;;6239654;28;20035;-79
2023/01/27 18:22:27;;;;;;;3.78;3.58;;;;;;;;;;6274318;28;20502;-79
2023/01/27 18:25:27;;;;;;;0.85;0.85;;;;;;;;;;6292116;28;20484;-78
2023/01/27 18:28:31;;;;;;;6.37;4.17;;;;;;;;;;6290487;28;20021;-79
2023/01/27 18:31:33;;;;;;;5.05;3.08;;;;;;;;;;6285741;28;20537;-78
2023/01/27 18:34:57;;;;;;;5.30;4.95;;;;;;;;;;6285493;28;20476;-78
2023/01/27 18:38:18;;;;;;;5.00;3.53;;;;;;;;;;6259105;28;20455;-78
2023/01/27 18:41:22;;;;;;;1.30;1.30;;;;;;;;;;6286885;28;20036;-77
2023/01/27 18:44:33;;;;;;;1.67;1.42;;;;;;;;;;6281595;28;20142;-77
2023/01/27 18:47:33;;;;;;;2.72;2.53;;;;;;;;;;6258797;28;20017;-77
2023/01/27 18:50:38;;;;;;;2.30;2.20;;;;;;;;;;6283180;28;20021;-78
2023/01/27 18:53:39;;;;;;;13.63;6.25;;;;;;;;;;6288647;28;20040;-78
2023/01/27 18:56:39;;;;;;;0.90;0.90;;;;;;;;;;6288809;28;20019;-78
2023/01/27 18:59:39;;;;;;;2.15;1.95;;;;;;;;;;6288283;28;20101;-78